createdAt,value
2022-09-14T00:03:16.890Z,22.60
2022-09-14T00:06:44.586Z,22.80
2022-09-14T00:12:15.721Z,23.00
2022-09-14T00:17:37.304Z,23.10
2022-09-14T00:19:58.059Z,23.00
2022-09-14T00:22:09.963Z,22.90
2022-09-14T00:24:21.135Z,22.80
2022-09-14T00:26:36.416Z,22.70
2022-09-14T00:29:21.498Z,22.60
2022-09-14T00:31:47.623Z,22.60
2022-09-14T00:39:54.540Z,22.50
2022-09-14T00:42:11.928Z,22.50
2022-09-14T00:45:01.132Z,22.60
2022-09-14T00:57:20.097Z,23.00
2022-09-14T00:59:45.227Z,23.10
2022-09-14T01:05:27.174Z,23.10
2022-09-14T01:07:42.821Z,22.90
2022-09-14T01:13:44.894Z,22.90
2022-09-14T01:16:37.734Z,22.90
2022-09-14T01:22:50.889Z,22.70
2022-09-14T01:27:47.505Z,22.50
2022-09-14T01:33:35.018Z,22.40
2022-09-14T01:35:39.756Z,22.50
2022-09-14T01:38:40.500Z,22.50
2022-09-14T01:40:53.343Z,22.60
2022-09-14T01:43:21.249Z,22.60
2022-09-14T01:45:52.507Z,22.70
2022-09-14T01:48:00.338Z,22.70
2022-09-14T01:51:05.368Z,22.60
2022-09-14T02:01:18.813Z,22.40
2022-09-14T02:03:31.485Z,22.00
2022-09-14T02:06:06.891Z,21.80
2022-09-14T02:12:05.274Z,21.40
2022-09-14T02:14:45.190Z,21.30
2022-09-14T02:17:03.963Z,21.30
2022-09-14T02:19:44.449Z,21.40
2022-09-14T02:22:06.636Z,21.40
2022-09-14T02:24:22.880Z,21.40
2022-09-14T02:27:06.342Z,21.40
2022-09-14T02:32:18.553Z,21.50
2022-09-14T02:34:42.094Z,21.60
2022-09-14T02:36:54.006Z,21.50
2022-09-14T02:39:58.629Z,21.40
2022-09-14T02:42:14.463Z,21.40
2022-09-14T02:44:22.703Z,21.40
2022-09-14T02:51:14.681Z,21.60
2022-09-14T02:57:12.913Z,21.80
2022-09-14T02:59:16.597Z,21.80
2022-09-14T03:01:30.498Z,21.80
2022-09-14T03:03:49.417Z,21.90
2022-09-14T03:05:52.945Z,22.00
2022-09-14T03:11:43.468Z,22.10
2022-09-14T03:14:14.313Z,22.20
2022-09-14T03:16:23.385Z,22.20
2022-09-14T03:22:05.891Z,22.20
2022-09-14T03:26:29.902Z,22.30
2022-09-14T03:28:35.466Z,22.30
2022-09-14T03:31:09.801Z,22.30
2022-09-14T03:33:50.099Z,22.30
2022-09-14T03:36:24.220Z,22.30
2022-09-14T03:38:30.339Z,22.30
2022-09-14T03:47:42.734Z,22.40
2022-09-14T03:53:33.237Z,22.40
2022-09-14T03:55:36.966Z,22.40
2022-09-14T03:57:40.429Z,22.40
2022-09-14T04:02:26.614Z,22.40
2022-09-14T04:12:21.199Z,22.20
2022-09-14T04:14:57.253Z,22.10
2022-09-14T04:20:43.930Z,21.80
2022-09-14T04:26:06.469Z,21.70
2022-09-14T04:28:37.573Z,21.50
2022-09-14T04:34:04.550Z,21.50
2022-09-14T04:36:15.216Z,21.40
2022-09-14T04:38:18.978Z,21.40
2022-09-14T04:40:32.361Z,21.40
2022-09-14T04:42:58.680Z,21.50
2022-09-14T04:45:21.371Z,21.50
2022-09-14T04:47:39.382Z,21.60
2022-09-14T04:50:07.107Z,21.60
2022-09-14T04:57:49.437Z,21.60
2022-09-14T05:02:36.708Z,21.70
2022-09-14T05:11:25.279Z,21.80
2022-09-14T05:13:28.671Z,21.80
2022-09-14T05:15:35.909Z,21.80
2022-09-14T05:17:44.890Z,21.90
2022-09-14T05:19:50.510Z,21.90
2022-09-14T05:21:59.414Z,21.90
2022-09-14T05:24:05.545Z,22.00
2022-09-14T05:26:08.986Z,22.00
2022-09-14T05:28:17.530Z,22.10
2022-09-14T05:30:26.569Z,22.10
2022-09-14T05:32:31.521Z,22.20
2022-09-14T05:34:45.329Z,22.20
2022-09-14T05:36:50.948Z,22.20
2022-09-14T05:39:02.351Z,22.20
2022-09-14T05:41:07.894Z,22.20
2022-09-14T05:43:16.364Z,22.20
2022-09-14T05:45:24.560Z,22.20
2022-09-14T05:47:31.035Z,22.30
2022-09-14T05:49:43.079Z,22.30
2022-09-14T05:51:48.699Z,22.30
2022-09-14T05:53:52.753Z,22.40
2022-09-14T05:56:16.678Z,22.50
2022-09-14T05:58:20.083Z,22.50
2022-09-14T06:00:41.552Z,22.60
2022-09-14T06:02:52.362Z,22.60
2022-09-14T06:05:14.680Z,22.60
2022-09-14T06:07:21.431Z,22.50
2022-09-14T06:09:31.169Z,22.60
2022-09-14T06:11:38.179Z,22.60
2022-09-14T06:13:45.048Z,22.70
2022-09-14T06:15:59.684Z,22.60
2022-09-14T06:18:19.507Z,22.70
2022-09-14T06:20:24.820Z,22.70
2022-09-14T06:22:43.455Z,22.70
2022-09-14T06:24:58.163Z,22.60
2022-09-14T06:27:12.301Z,22.60
2022-09-14T06:29:15.660Z,22.50
2022-09-14T06:31:39.606Z,22.50
2022-09-14T06:33:54.012Z,22.50
2022-09-14T06:36:01.103Z,22.60
2022-09-14T06:38:04.798Z,22.60
2022-09-14T06:40:19.351Z,22.60
2022-09-14T06:42:24.488Z,22.60
2022-09-14T06:44:31.118Z,22.60
2022-09-14T06:46:36.876Z,22.60
2022-09-14T06:48:44.334Z,22.60
2022-09-14T06:50:47.806Z,22.60
2022-09-14T06:52:52.640Z,22.70
2022-09-14T06:54:58.529Z,22.70
2022-09-14T06:57:09.063Z,22.80
2022-09-14T06:59:17.366Z,22.90
2022-09-14T07:01:23.860Z,22.90
2022-09-14T07:03:29.365Z,23.00
2022-09-14T07:05:32.967Z,23.00
2022-09-14T07:07:39.123Z,23.10
2022-09-14T07:09:42.693Z,23.20
2022-09-14T07:12:21.347Z,23.20
2022-09-14T07:14:32.074Z,23.20
2022-09-14T07:16:36.543Z,23.30
2022-09-14T07:18:48.331Z,23.30
2022-09-14T07:21:08.524Z,23.30
2022-09-14T07:23:14.467Z,23.30
2022-09-14T07:25:35.533Z,23.30
2022-09-14T07:27:52.531Z,23.30
2022-09-14T07:30:11.193Z,23.30
2022-09-14T07:32:31.631Z,23.40
2022-09-14T07:34:43.362Z,23.40
2022-09-14T07:36:47.140Z,23.50
2022-09-14T07:39:00.145Z,23.60
2022-09-14T07:41:09.935Z,23.60
2022-09-14T07:43:20.522Z,23.70
2022-09-14T07:45:49.369Z,23.80
2022-09-14T07:47:57.697Z,23.90
2022-09-14T07:50:14.600Z,24.00
2022-09-14T07:52:26.420Z,24.10
2022-09-14T07:54:35.631Z,24.10
2022-09-14T07:56:41.462Z,24.20
2022-09-14T08:01:30.047Z,24.10
2022-09-14T08:03:41.871Z,24.20
2022-09-14T08:05:50.527Z,24.20
2022-09-14T08:10:27.493Z,24.10
2022-09-14T08:12:44.477Z,24.10
2022-09-14T08:14:51.392Z,24.10
2022-09-14T08:16:59.976Z,24.10
2022-09-14T08:19:15.877Z,24.10
2022-09-14T08:21:25.222Z,24.20
2022-09-14T08:23:33.745Z,24.10
2022-09-14T08:25:40.037Z,24.10
2022-09-14T08:27:52.605Z,24.10
2022-09-14T08:29:56.286Z,24.10
2022-09-14T08:32:03.969Z,24.10
2022-09-14T08:34:07.593Z,24.10
2022-09-14T08:36:12.158Z,24.10
2022-09-14T08:38:16.388Z,24.20
2022-09-14T08:40:23.929Z,24.20
2022-09-14T08:42:27.517Z,24.20
2022-09-14T08:44:44.765Z,24.20
2022-09-14T08:46:55.324Z,24.10
2022-09-14T08:49:03.134Z,24.10
2022-09-14T08:51:10.676Z,24.10
2022-09-14T08:53:14.154Z,24.10
2022-09-14T08:55:25.714Z,24.00
2022-09-14T08:57:47.476Z,24.10
2022-09-14T09:00:05.205Z,24.10
2022-09-14T09:02:24.900Z,24.20
2022-09-14T09:04:39.618Z,24.30
2022-09-14T09:06:51.060Z,24.30
2022-09-14T09:09:06.090Z,24.40
2022-09-14T09:11:16.635Z,24.50
2022-09-14T09:13:21.964Z,24.50
2022-09-14T09:15:27.269Z,24.60
2022-09-14T09:17:34.685Z,24.70
2022-09-14T09:19:52.226Z,24.80
2022-09-14T09:21:58.453Z,25.00
2022-09-14T09:24:11.175Z,25.00
2022-09-14T09:26:18.520Z,25.00
2022-09-14T09:28:23.664Z,25.10
2022-09-14T09:30:40.340Z,25.10
2022-09-14T09:35:03.878Z,25.20
2022-09-14T09:37:09.761Z,25.30
2022-09-14T09:39:23.285Z,25.30
2022-09-14T09:41:32.689Z,25.30
2022-09-14T09:43:53.659Z,25.20
2022-09-14T09:45:59.575Z,25.20
2022-09-14T09:48:12.200Z,25.00
2022-09-14T09:50:25.431Z,25.00
2022-09-14T09:52:33.252Z,25.00
2022-09-14T09:54:45.740Z,25.00
2022-09-14T09:57:15.119Z,25.00
2022-09-14T09:59:36.495Z,25.20
2022-09-14T10:02:11.318Z,25.40
2022-09-14T10:04:30.799Z,25.40
2022-09-14T10:09:34.704Z,25.50
2022-09-14T10:12:08.772Z,25.40
2022-09-14T10:15:03.130Z,25.40
2022-09-14T10:17:09.680Z,25.40
2022-09-14T10:19:42.484Z,25.20
2022-09-14T10:22:20.836Z,25.20
2022-09-14T10:24:26.964Z,25.00
2022-09-14T10:26:38.003Z,25.00
2022-09-14T10:28:45.716Z,25.00
2022-09-14T10:31:09.962Z,24.90
2022-09-14T10:33:24.246Z,25.00
2022-09-14T10:35:48.434Z,25.10
2022-09-14T10:38:30.480Z,25.20
2022-09-14T10:41:06.752Z,25.30
2022-09-14T10:43:51.486Z,25.30
2022-09-14T10:46:16.744Z,25.20
2022-09-14T10:49:02.675Z,25.20
2022-09-14T10:51:16.589Z,25.10
2022-09-14T10:53:51.414Z,25.10
2022-09-14T10:56:10.335Z,25.20
2022-09-14T10:58:28.163Z,25.30
2022-09-14T11:01:05.356Z,25.40
2022-09-14T11:03:59.454Z,25.40
2022-09-14T11:06:07.697Z,25.70
2022-09-14T11:08:35.756Z,25.90
2022-09-14T11:10:58.540Z,25.90
2022-09-14T11:16:05.179Z,25.60
2022-09-14T11:18:22.857Z,25.60
2022-09-14T11:20:33.965Z,25.50
2022-09-14T11:22:41.072Z,25.50
2022-09-14T11:24:46.356Z,25.40
2022-09-14T11:27:03.348Z,25.40
2022-09-14T11:29:13.566Z,25.40
2022-09-14T11:31:19.831Z,25.30
2022-09-14T11:33:31.225Z,25.30
2022-09-14T11:35:46.527Z,25.30
2022-09-14T11:37:53.307Z,25.30
2022-09-14T11:40:04.900Z,25.20
2022-09-14T11:42:13.578Z,25.20
2022-09-14T11:44:19.451Z,25.30
2022-09-14T11:46:27.338Z,25.30
2022-09-14T11:48:42.740Z,25.50
2022-09-14T11:50:52.299Z,25.70
2022-09-14T11:53:04.248Z,25.90
2022-09-14T11:55:17.558Z,25.90
2022-09-14T11:57:24.023Z,26.00
2022-09-14T11:59:39.457Z,26.10
2022-09-14T12:01:44.012Z,26.10
2022-09-14T12:03:55.945Z,26.10
2022-09-14T12:06:02.397Z,26.20
2022-09-14T12:08:44.903Z,26.40
2022-09-14T12:11:05.684Z,26.50
2022-09-14T12:13:24.885Z,26.50
2022-09-14T12:15:40.170Z,26.60
2022-09-14T12:17:49.152Z,26.50
2022-09-14T12:19:53.612Z,26.60
2022-09-14T12:22:09.437Z,26.70
2022-09-14T12:24:29.117Z,26.70
2022-09-14T12:26:43.435Z,26.80
2022-09-14T12:28:57.064Z,26.90
2022-09-14T12:31:36.207Z,27.00
2022-09-14T12:34:04.876Z,27.00
2022-09-14T12:36:11.035Z,27.10
2022-09-14T12:38:53.399Z,27.20
2022-09-14T12:40:58.046Z,27.20
2022-09-14T12:43:46.337Z,27.30
2022-09-14T12:46:06.475Z,27.20
2022-09-14T12:48:10.101Z,27.20
2022-09-14T12:50:20.304Z,27.20
2022-09-14T12:52:36.333Z,27.30
2022-09-14T12:54:51.518Z,27.30
2022-09-14T12:57:05.721Z,27.20
2022-09-14T12:59:13.169Z,27.10
2022-09-14T13:01:27.826Z,27.10
2022-09-14T13:03:50.888Z,27.00
2022-09-14T13:05:55.577Z,27.00
2022-09-14T13:07:59.897Z,26.90
2022-09-14T13:10:11.019Z,26.70
2022-09-14T13:12:14.811Z,26.50
2022-09-14T13:14:18.713Z,26.30
2022-09-14T13:16:31.200Z,26.10
2022-09-14T13:18:36.441Z,26.00
2022-09-14T13:20:53.034Z,25.90
2022-09-14T13:22:56.838Z,26.00
2022-09-14T13:25:04.404Z,26.10
2022-09-14T13:27:16.171Z,26.30
2022-09-14T13:29:21.466Z,26.30
2022-09-14T13:31:39.207Z,26.40
2022-09-14T13:33:50.317Z,26.50
2022-09-14T13:35:57.574Z,26.60
2022-09-14T13:38:04.549Z,26.60
2022-09-14T13:40:17.822Z,26.50
2022-09-14T13:42:30.207Z,26.40
2022-09-14T13:44:36.019Z,26.40
2022-09-14T13:46:43.474Z,26.40
2022-09-14T13:48:49.899Z,26.40
2022-09-14T13:50:53.604Z,26.40
2022-09-14T13:53:03.803Z,26.50
2022-09-14T13:55:22.085Z,26.60
2022-09-14T13:57:27.934Z,26.60
2022-09-14T13:59:34.370Z,26.70
2022-09-14T14:01:43.810Z,26.80
2022-09-14T14:03:51.402Z,26.90
2022-09-14T14:06:00.649Z,27.00
2022-09-14T14:08:04.890Z,27.10
2022-09-14T14:10:25.811Z,27.00
2022-09-14T14:12:33.278Z,26.90
2022-09-14T14:14:36.797Z,26.80
2022-09-14T14:16:40.426Z,26.70
2022-09-14T14:18:50.531Z,26.60
2022-09-14T14:21:05.748Z,26.40
2022-09-14T14:26:29.152Z,26.10
2022-09-14T14:28:35.179Z,26.00
2022-09-14T14:30:41.378Z,25.80
2022-09-14T14:32:52.309Z,25.70
2022-09-14T14:35:08.874Z,25.70
2022-09-14T14:37:22.024Z,25.70
2022-09-14T14:39:34.838Z,25.60
2022-09-14T14:41:44.248Z,25.50
2022-09-14T14:43:52.386Z,25.40
2022-09-14T14:45:57.583Z,25.30
2022-09-14T14:48:01.426Z,25.30
2022-09-14T14:50:12.166Z,25.20
2022-09-14T14:52:18.076Z,25.10
2022-09-14T14:54:24.700Z,25.00
2022-09-14T14:56:28.946Z,24.80
2022-09-14T14:58:36.413Z,24.80
2022-09-14T15:01:01.205Z,24.70
2022-09-14T15:03:12.166Z,24.70
2022-09-14T15:05:26.893Z,24.70
2022-09-14T15:07:38.106Z,24.80
2022-09-14T15:09:41.769Z,24.90
2022-09-14T15:11:47.216Z,24.90
2022-09-14T15:13:53.480Z,25.00
2022-09-14T15:15:57.512Z,25.10
2022-09-14T15:18:04.744Z,25.20
2022-09-14T15:20:12.256Z,25.20
2022-09-14T15:22:23.334Z,25.20
2022-09-14T15:24:31.239Z,25.30
2022-09-14T15:26:35.529Z,25.30
2022-09-14T15:28:41.038Z,25.30
2022-09-14T15:30:57.359Z,25.30
2022-09-14T15:33:01.126Z,25.40
2022-09-14T15:35:06.117Z,25.50
2022-09-14T15:37:17.833Z,25.70
2022-09-14T15:39:24.629Z,25.90
2022-09-14T15:41:28.865Z,26.20
2022-09-14T15:43:36.783Z,26.40
2022-09-14T15:45:43.075Z,26.70
2022-09-14T15:47:52.515Z,26.80
2022-09-14T15:49:56.084Z,27.00
2022-09-14T15:52:02.421Z,27.10
2022-09-14T15:54:10.858Z,27.10
2022-09-14T15:56:17.745Z,27.20
2022-09-14T15:58:21.720Z,27.30
2022-09-14T16:00:30.311Z,27.30
2022-09-14T16:02:37.731Z,27.30
2022-09-14T16:04:44.385Z,27.30
2022-09-14T16:06:49.157Z,27.30
2022-09-14T16:08:53.012Z,27.30
2022-09-14T16:11:01.586Z,27.30
2022-09-14T16:13:06.688Z,27.30
2022-09-14T16:15:25.112Z,27.30
2022-09-14T16:17:28.809Z,27.20
2022-09-14T16:19:32.304Z,27.30
2022-09-14T16:21:38.707Z,27.30
2022-09-14T16:23:48.236Z,27.20
2022-09-14T16:25:53.551Z,27.20
2022-09-14T16:28:03.104Z,27.10
2022-09-14T16:30:10.834Z,27.00
2022-09-14T16:32:18.699Z,26.90
2022-09-14T16:34:25.834Z,26.80
2022-09-14T16:36:29.946Z,26.60
2022-09-14T16:38:34.545Z,26.60
2022-09-14T16:40:42.224Z,26.40
2022-09-14T16:42:49.214Z,26.30
2022-09-14T16:44:58.273Z,26.20
2022-09-14T16:47:05.516Z,26.10
2022-09-14T16:49:09.371Z,26.10
2022-09-14T16:51:15.816Z,26.10
2022-09-14T16:53:20.238Z,26.10
2022-09-14T16:55:31.126Z,26.10
2022-09-14T16:57:34.701Z,26.00
2022-09-14T16:59:43.151Z,25.90
2022-09-14T17:01:53.637Z,25.90
2022-09-14T17:04:05.613Z,25.90
2022-09-14T17:06:10.273Z,25.80
2022-09-14T17:08:14.312Z,25.80
2022-09-14T17:10:17.839Z,25.80
2022-09-14T17:12:27.890Z,25.70
2022-09-14T17:14:51.306Z,25.60
2022-09-14T17:16:56.808Z,25.40
2022-09-14T17:19:03.236Z,25.20
2022-09-14T17:21:16.117Z,24.90
2022-09-14T17:23:24.163Z,24.50
2022-09-14T17:25:33.756Z,24.00
2022-09-14T17:27:49.137Z,23.60
2022-09-14T17:29:55.222Z,23.40
2022-09-14T17:32:01.529Z,23.40
2022-09-14T17:34:18.203Z,23.40
2022-09-14T17:36:24.670Z,23.30
2022-09-14T17:38:33.410Z,23.30
2022-09-14T17:40:36.787Z,23.30
2022-09-14T17:42:43.561Z,23.40
2022-09-14T17:44:52.441Z,23.40
2022-09-14T17:46:55.977Z,23.40
2022-09-14T17:49:12.811Z,23.40
2022-09-14T17:51:25.582Z,23.40
2022-09-14T17:53:29.885Z,23.50
2022-09-14T17:55:51.993Z,23.50
2022-09-14T17:57:58.497Z,23.50
2022-09-14T18:00:32.252Z,23.50
2022-09-14T18:02:38.515Z,23.60
2022-09-14T18:14:38.699Z,23.90
2022-09-14T18:19:29.593Z,23.80
2022-09-14T18:21:35.774Z,23.70
2022-09-14T18:27:14.204Z,23.80
2022-09-14T18:30:15.178Z,23.70
2022-09-14T18:32:23.694Z,23.60
2022-09-14T18:38:44.211Z,23.70
2022-09-14T18:57:31.180Z,23.80
2022-09-14T19:13:31.093Z,23.40
2022-09-14T19:16:32.140Z,23.40
2022-09-14T19:26:02.168Z,23.50
2022-09-14T19:34:05.671Z,23.40
2022-09-14T19:36:28.232Z,23.40
2022-09-14T19:45:25.185Z,23.30
2022-09-14T19:48:18.281Z,23.20
2022-09-14T19:50:56.275Z,23.20
2022-09-14T19:54:03.078Z,23.20
2022-09-14T20:04:33.948Z,23.20
2022-09-14T20:07:17.258Z,23.20
2022-09-14T20:32:44.848Z,23.40
2022-09-14T20:41:43.562Z,23.20
2022-09-14T20:43:55.762Z,22.90
2022-09-14T20:49:32.554Z,22.80
2022-09-14T20:52:24.891Z,22.70
2022-09-14T21:10:41.682Z,22.60
2022-09-14T21:13:21.794Z,22.60
2022-09-14T21:18:05.414Z,22.60
2022-09-14T21:27:16.920Z,22.50
2022-09-14T21:29:27.991Z,22.40
2022-09-14T21:31:32.915Z,22.50
2022-09-14T21:49:00.202Z,22.40
2022-09-14T21:51:44.568Z,22.50
2022-09-14T22:04:36.773Z,22.60
2022-09-14T22:21:52.075Z,22.60
2022-09-14T22:25:29.567Z,22.70
2022-09-14T22:31:23.541Z,22.70
2022-09-14T22:36:13.256Z,22.90
2022-09-14T22:38:27.375Z,23.00
2022-09-14T22:40:55.812Z,23.10
2022-09-14T22:43:33.111Z,23.20
2022-09-14T22:45:37.020Z,23.20
2022-09-14T22:47:42.246Z,23.10
2022-09-14T22:50:37.658Z,23.10
2022-09-14T22:53:02.345Z,22.90
2022-09-14T22:55:06.672Z,22.80
2022-09-14T23:05:04.372Z,22.80
2022-09-14T23:07:09.805Z,22.70
2022-09-14T23:09:25.517Z,22.60
2022-09-14T23:11:30.103Z,22.50
2022-09-14T23:16:55.423Z,22.40
2022-09-14T23:19:35.512Z,22.50
2022-09-14T23:22:08.905Z,22.50
2022-09-14T23:24:12.281Z,22.60
2022-09-14T23:26:30.924Z,22.60
2022-09-14T23:37:48.140Z,22.80
2022-09-14T23:39:51.844Z,22.90
2022-09-14T23:42:37.512Z,23.00
